createdAt,value
2023-01-19T00:00:03.904Z,80.1
2023-01-19T00:01:05.789Z,80.1
2023-01-19T00:02:06.684Z,80.1
2023-01-19T00:03:08.167Z,80.1
2023-01-19T00:04:09.036Z,80.1
2023-01-19T00:05:09.661Z,80.1
2023-01-19T00:06:11.105Z,80
2023-01-19T00:07:12.310Z,79.9
2023-01-19T00:08:13.721Z,79.9
2023-01-19T00:09:14.340Z,79.8
2023-01-19T00:10:15.236Z,79.8
2023-01-19T00:11:16.066Z,79.7
2023-01-19T00:12:16.911Z,79.7
2023-01-19T00:13:18.087Z,79.8
2023-01-19T00:14:18.984Z,79.8
2023-01-19T00:15:19.845Z,79.8
2023-01-19T00:16:21.167Z,79.7
2023-01-19T00:17:21.835Z,79.7
2023-01-19T00:18:22.733Z,79.8
2023-01-19T00:19:23.879Z,80
2023-01-19T00:20:25.286Z,80.2
2023-01-19T00:21:26.225Z,80.5
2023-01-19T00:22:27.329Z,80.7
2023-01-19T00:23:28.236Z,80.9
2023-01-19T00:24:29.367Z,81
2023-01-19T00:25:30.268Z,81
2023-01-19T00:26:31.869Z,81.1
2023-01-19T00:27:32.726Z,81.1
2023-01-19T00:28:33.582Z,81.1
2023-01-19T00:29:34.484Z,81.2
2023-01-19T00:30:35.337Z,81.3
2023-01-19T00:31:36.434Z,81.6
2023-01-19T00:32:37.268Z,81.8
2023-01-19T00:33:38.408Z,81.9
2023-01-19T00:34:39.819Z,82.1
2023-01-19T00:35:40.996Z,82.1
2023-01-19T00:36:41.881Z,82.2
2023-01-19T00:37:43.045Z,82.3
2023-01-19T00:38:44.177Z,82.2
2023-01-19T00:39:45.045Z,82.2
2023-01-19T00:40:45.947Z,82.2
2023-01-19T00:41:47.359Z,82.1
2023-01-19T00:42:48.311Z,82.1
2023-01-19T00:43:49.528Z,82
2023-01-19T00:44:50.164Z,81.9
2023-01-19T00:45:51.340Z,81.9
2023-01-19T00:46:52.602Z,81.8
2023-01-19T00:47:54.046Z,81.8
2023-01-19T00:48:54.898Z,81.7
2023-01-19T00:49:55.757Z,81.7
2023-01-19T00:50:56.612Z,81.6
2023-01-19T00:51:57.787Z,81.5
2023-01-19T00:52:59.844Z,81.5
2023-01-19T00:54:00.912Z,81.4
2023-01-19T00:55:02.130Z,81.4
2023-01-19T00:56:03.309Z,81.4
2023-01-19T00:57:04.444Z,81.3
2023-01-19T00:58:05.626Z,81.3
2023-01-19T00:59:06.767Z,81.3
2023-01-19T01:00:07.671Z,81.2
2023-01-19T01:01:09.460Z,81.2
2023-01-19T01:02:11.090Z,81.1
2023-01-19T01:03:12.515Z,81.1
2023-01-19T01:04:13.745Z,81
2023-01-19T01:05:14.894Z,81
2023-01-19T01:06:16.553Z,80.9
2023-01-19T01:07:17.720Z,80.8
2023-01-19T01:08:18.621Z,80.7
2023-01-19T01:09:19.481Z,80.7
2023-01-19T01:10:20.911Z,80.6
2023-01-19T01:11:21.813Z,80.5
2023-01-19T01:12:22.435Z,80.4
2023-01-19T01:13:28.689Z,80.4
2023-01-19T01:14:30.543Z,80.4
2023-01-19T01:15:31.951Z,80.3
2023-01-19T01:16:33.044Z,80.3
2023-01-19T01:17:34.287Z,80.3
2023-01-19T01:18:35.707Z,80.3
2023-01-19T01:19:36.890Z,80.2
2023-01-19T01:20:37.789Z,80.2
2023-01-19T01:21:38.965Z,80.1
2023-01-19T01:22:40.407Z,80.1
2023-01-19T01:23:41.800Z,80
2023-01-19T01:24:42.652Z,80
2023-01-19T01:25:43.790Z,79.9
2023-01-19T01:26:44.931Z,79.9
2023-01-19T01:27:45.785Z,79.9
2023-01-19T01:28:46.922Z,79.8
2023-01-19T01:29:48.105Z,79.7
2023-01-19T01:30:49.272Z,79.7
2023-01-19T01:31:50.653Z,79.7
2023-01-19T01:32:51.495Z,79.6
2023-01-19T01:33:52.625Z,79.6
2023-01-19T01:34:54.038Z,79.6
2023-01-19T01:35:55.459Z,79.5
2023-01-19T01:36:56.878Z,79.5
2023-01-19T01:37:58.041Z,79.5
2023-01-19T01:38:59.430Z,79.5
2023-01-19T01:40:00.343Z,79.4
2023-01-19T01:41:01.478Z,79.4
2023-01-19T01:42:02.892Z,79.4
2023-01-19T01:43:04.218Z,79.4
2023-01-19T01:44:05.355Z,79.4
2023-01-19T01:45:06.259Z,79.4
2023-01-19T01:46:07.174Z,79.4
2023-01-19T01:47:07.808Z,79.3
2023-01-19T01:48:08.943Z,79.3
2023-01-19T01:49:10.079Z,79.3
2023-01-19T01:50:11.227Z,79.2
2023-01-19T01:51:11.849Z,79.2
2023-01-19T01:52:13.268Z,79.2
2023-01-19T01:53:14.484Z,79.3
2023-01-19T01:54:15.459Z,79.2
2023-01-19T01:55:16.363Z,79.2
2023-01-19T01:56:17.781Z,79.2
2023-01-19T01:57:18.958Z,79.1
2023-01-19T01:58:19.861Z,79.1
2023-01-19T01:59:21.039Z,79.1
2023-01-19T02:00:22.003Z,79.1
2023-01-19T02:01:23.810Z,79.1
2023-01-19T02:02:25.233Z,79.1
2023-01-19T02:03:26.434Z,79.1
2023-01-19T02:04:27.346Z,79
2023-01-19T02:05:28.480Z,79
2023-01-19T02:06:29.332Z,79
2023-01-19T02:07:30.474Z,78.9
2023-01-19T02:08:31.925Z,78.9
2023-01-19T02:09:32.753Z,78.9
2023-01-19T02:10:33.655Z,78.8
2023-01-19T02:11:35.066Z,78.7
2023-01-19T02:12:35.966Z,78.7
2023-01-19T02:13:36.867Z,78.7
2023-01-19T02:14:38.288Z,78.7
2023-01-19T02:15:39.419Z,78.7
2023-01-19T02:16:40.722Z,78.7
2023-01-19T02:17:41.624Z,78.6
2023-01-19T02:18:42.766Z,78.6
2023-01-19T02:19:43.907Z,78.5
2023-01-19T02:20:44.810Z,78.5
2023-01-19T02:21:45.714Z,78.5
2023-01-19T02:22:46.336Z,78.5
2023-01-19T02:23:47.492Z,78.5
2023-01-19T02:24:48.884Z,78.5
2023-01-19T02:25:50.019Z,78.5
2023-01-19T02:26:50.640Z,78.5
2023-01-19T02:27:51.542Z,78.5
2023-01-19T02:28:52.831Z,78.4
2023-01-19T02:29:53.966Z,78.4
2023-01-19T02:30:55.325Z,78.4
2023-01-19T02:31:56.456Z,78.4
2023-01-19T02:32:57.073Z,78.3
2023-01-19T02:33:58.253Z,78.3
2023-01-19T02:34:59.388Z,78.3
2023-01-19T02:36:00.571Z,78.3
2023-01-19T02:37:02.024Z,78.3
2023-01-19T02:38:03.124Z,78.3
2023-01-19T02:39:04.067Z,78.3
2023-01-19T02:40:04.882Z,78.3
2023-01-19T02:41:06.018Z,78.3
2023-01-19T02:42:07.158Z,78.3
2023-01-19T02:43:08.059Z,78.3
2023-01-19T02:44:09.199Z,78.3
2023-01-19T02:45:10.053Z,78.3
2023-01-19T02:46:11.800Z,78.2
2023-01-19T02:47:12.752Z,78.2
2023-01-19T02:48:13.378Z,78.2
2023-01-19T02:49:14.507Z,78.2
2023-01-19T02:50:15.402Z,78.2
2023-01-19T02:51:17.100Z,78.2
2023-01-19T02:52:18.271Z,78.2
2023-01-19T02:53:19.655Z,78.2
2023-01-19T02:54:20.581Z,78.1
2023-01-19T02:55:21.598Z,78.1
2023-01-19T02:56:22.451Z,78.1
2023-01-19T02:57:23.591Z,78.1
2023-01-19T02:58:24.726Z,78.1
2023-01-19T02:59:25.916Z,78.1
2023-01-19T03:00:27.052Z,78.1
2023-01-19T03:01:28.698Z,78.1
2023-01-19T03:02:30.275Z,78.1
2023-01-19T03:03:31.192Z,78.1
2023-01-19T03:04:32.085Z,78.2
2023-01-19T03:05:32.986Z,78.2
2023-01-19T03:06:34.119Z,78.2
2023-01-19T03:07:35.267Z,78.2
2023-01-19T03:08:36.112Z,78.2
2023-01-19T03:09:37.310Z,78.2
2023-01-19T03:10:38.485Z,78.2
2023-01-19T03:11:39.909Z,78.2
2023-01-19T03:12:40.809Z,78.2
2023-01-19T03:13:42.234Z,78.2
2023-01-19T03:14:42.858Z,78.2
2023-01-19T03:15:44.363Z,78.3
2023-01-19T03:16:46.179Z,78.3
2023-01-19T03:17:47.369Z,78.3
2023-01-19T03:18:48.223Z,78.4
2023-01-19T03:19:49.119Z,78.4
2023-01-19T03:20:49.738Z,78.4
2023-01-19T03:21:50.886Z,78.3
2023-01-19T03:22:52.101Z,78.3
2023-01-19T03:23:52.997Z,78.3
2023-01-19T03:25:59.162Z,78.4
2023-01-19T03:26:59.988Z,78.4
2023-01-19T03:28:01.405Z,78.4
2023-01-19T03:29:02.538Z,78.4
2023-01-19T03:30:03.682Z,78.3
2023-01-19T03:31:04.696Z,78.4
2023-01-19T03:32:06.155Z,78.4
2023-01-19T03:33:07.330Z,78.3
2023-01-19T03:34:08.746Z,78.3
2023-01-19T03:35:09.641Z,78.3
2023-01-19T03:36:10.503Z,78.3
2023-01-19T03:37:11.682Z,78.3
2023-01-19T03:38:13.101Z,78.3
2023-01-19T03:39:14.514Z,78.3
2023-01-19T03:40:15.929Z,78.2
2023-01-19T03:41:17.383Z,78.3
2023-01-19T03:42:18.213Z,78.3
2023-01-19T03:43:18.848Z,78.3
2023-01-19T03:44:20.250Z,78.3
2023-01-19T03:45:21.386Z,78.3
2023-01-19T03:46:22.551Z,78.3
2023-01-19T03:47:23.466Z,78.3
2023-01-19T03:48:24.878Z,78.3
2023-01-19T03:49:26.024Z,78.3
2023-01-19T03:50:27.157Z,78.3
2023-01-19T03:51:28.053Z,78.2
2023-01-19T03:52:29.473Z,78.2
2023-01-19T03:53:30.100Z,78.3
2023-01-19T03:54:31.511Z,78.3
2023-01-19T03:55:32.368Z,78.3
2023-01-19T03:56:33.296Z,78.3
2023-01-19T03:57:34.407Z,78.3
2023-01-19T03:58:35.999Z,78.3
2023-01-19T03:59:36.899Z,78.3
2023-01-19T04:00:38.317Z,78.3
2023-01-19T04:01:39.889Z,78.3
2023-01-19T04:02:41.704Z,78.2
2023-01-19T04:03:43.150Z,78.2
2023-01-19T04:04:44.263Z,78.2
2023-01-19T04:05:45.404Z,78.2
2023-01-19T04:06:46.818Z,78.2
2023-01-19T04:07:47.999Z,78.2
2023-01-19T04:08:49.414Z,78.3
2023-01-19T04:09:50.827Z,78.3
2023-01-19T04:10:52.024Z,78.3
2023-01-19T04:11:52.892Z,78.3
2023-01-19T04:12:53.999Z,78.4
2023-01-19T04:13:54.897Z,78.5
2023-01-19T04:14:56.316Z,78.5
2023-01-19T04:15:57.580Z,78.6
2023-01-19T04:16:59.201Z,78.5
2023-01-19T04:18:00.333Z,78.6
2023-01-19T04:19:01.474Z,78.6
2023-01-19T04:20:02.901Z,78.7
2023-01-19T04:21:04.114Z,78.7
2023-01-19T04:22:05.597Z,78.7
2023-01-19T04:23:07.105Z,78.8
2023-01-19T04:24:07.973Z,78.8
2023-01-19T04:25:09.379Z,78.9
2023-01-19T04:26:10.812Z,78.9
2023-01-19T04:27:12.248Z,78.9
2023-01-19T04:28:13.660Z,79
2023-01-19T04:29:15.097Z,78.9
2023-01-19T04:30:16.504Z,78.9
2023-01-19T04:31:17.668Z,78.9
2023-01-19T04:32:18.771Z,78.9
2023-01-19T04:33:19.910Z,78.9
2023-01-19T04:34:21.316Z,79
2023-01-19T04:35:22.494Z,79
2023-01-19T04:36:23.633Z,78.9
2023-01-19T04:37:24.536Z,78.9
2023-01-19T04:38:25.952Z,78.9
2023-01-19T04:39:27.528Z,78.9
2023-01-19T04:40:28.656Z,78.8
2023-01-19T04:41:31.430Z,78.8
2023-01-19T04:42:33.123Z,78.7
2023-01-19T04:43:34.156Z,78.7
2023-01-19T04:44:35.307Z,78.7
2023-01-19T04:45:36.218Z,78.6
2023-01-19T04:46:37.246Z,78.6
2023-01-19T04:47:38.258Z,78.6
2023-01-19T04:48:42.817Z,78.6
2023-01-19T04:49:44.000Z,78.6
2023-01-19T04:50:44.895Z,78.6
2023-01-19T04:51:46.034Z,78.6
2023-01-19T04:52:47.211Z,78.6
2023-01-19T04:53:48.356Z,78.6
2023-01-19T04:54:49.484Z,78.6
2023-01-19T04:55:50.901Z,78.6
2023-01-19T04:56:51.760Z,78.5
2023-01-19T04:57:53.216Z,78.5
2023-01-19T04:58:54.596Z,78.4
2023-01-19T04:59:55.733Z,78.4
2023-01-19T05:00:57.005Z,78.4
2023-01-19T05:01:58.172Z,78.4
2023-01-19T05:03:01.138Z,78.4
2023-01-19T05:04:02.534Z,78.4
2023-01-19T05:05:03.960Z,78.3
2023-01-19T05:06:05.360Z,78.3
2023-01-19T05:07:06.774Z,78.3
2023-01-19T05:08:07.954Z,78.3
2023-01-19T05:09:09.379Z,78.3
2023-01-19T05:10:10.786Z,78.3
2023-01-19T05:11:11.978Z,78.3
2023-01-19T05:12:13.117Z,78.4
2023-01-19T05:13:14.567Z,78.4
2023-01-19T05:14:15.664Z,78.6
2023-01-19T05:15:16.847Z,78.6
2023-01-19T05:16:18.319Z,78.8
2023-01-19T05:17:19.520Z,78.9
2023-01-19T05:18:20.932Z,79
2023-01-19T05:19:22.067Z,79.1
2023-01-19T05:20:23.484Z,79.1
2023-01-19T05:21:24.900Z,79.2
2023-01-19T05:22:26.048Z,79.2
2023-01-19T05:23:27.176Z,79.2
2023-01-19T05:24:28.601Z,79.2
2023-01-19T05:25:29.794Z,79.2
2023-01-19T05:26:30.923Z,79.2
2023-01-19T05:27:32.064Z,79.2
2023-01-19T05:28:33.548Z,79.2
2023-01-19T05:29:34.767Z,79.2
2023-01-19T05:30:36.018Z,79.2
2023-01-19T05:31:37.723Z,79.3
2023-01-19T05:32:39.160Z,79.3
2023-01-19T05:33:40.294Z,79.3
2023-01-19T05:34:41.193Z,79.3
2023-01-19T05:35:42.328Z,79.2
2023-01-19T05:36:43.486Z,79.2
2023-01-19T05:37:44.508Z,79.2
2023-01-19T05:38:45.355Z,79.2
2023-01-19T05:39:46.570Z,79.1
2023-01-19T05:40:47.406Z,79.1
2023-01-19T05:41:48.540Z,79.1
2023-01-19T05:42:49.393Z,79
2023-01-19T05:43:50.553Z,79
2023-01-19T05:44:51.944Z,79.1
2023-01-19T05:45:53.080Z,79.2
2023-01-19T05:46:54.266Z,79.3
2023-01-19T05:47:55.366Z,79.4
2023-01-19T05:48:56.783Z,79.4
2023-01-19T05:49:58.202Z,79.5
2023-01-19T05:50:59.192Z,79.6
2023-01-19T05:52:00.600Z,79.6
2023-01-19T05:53:03.509Z,79.6
2023-01-19T05:54:04.636Z,79.6
2023-01-19T05:55:06.051Z,79.7
2023-01-19T05:56:07.471Z,79.7
2023-01-19T05:57:08.899Z,79.7
2023-01-19T05:58:09.820Z,79.8
2023-01-19T05:59:11.272Z,79.8
2023-01-19T06:00:12.093Z,79.8
2023-01-19T06:01:13.273Z,79.8
2023-01-19T06:02:14.932Z,79.8
2023-01-19T06:03:16.165Z,79.8
2023-01-19T06:04:17.558Z,79.9
2023-01-19T06:05:18.462Z,79.9
2023-01-19T06:06:19.599Z,80
2023-01-19T06:07:21.014Z,80.2
2023-01-19T06:08:22.205Z,80.3
2023-01-19T06:09:23.380Z,80.4
2023-01-19T06:10:24.793Z,80.4
2023-01-19T06:11:25.934Z,80.5
2023-01-19T06:12:27.111Z,80.5
2023-01-19T06:13:28.527Z,80.5
2023-01-19T06:14:29.659Z,80.5
2023-01-19T06:15:30.563Z,80.5
2023-01-19T06:16:31.963Z,80.4
2023-01-19T06:17:33.245Z,80.4
2023-01-19T06:18:34.424Z,80.3
2023-01-19T06:19:35.601Z,80.2
2023-01-19T06:20:37.207Z,80.2
2023-01-19T06:21:38.411Z,80.1
2023-01-19T06:22:39.591Z,80.1
2023-01-19T06:23:40.772Z,80
2023-01-19T06:24:41.682Z,80
2023-01-19T06:25:42.865Z,80
2023-01-19T06:26:44.277Z,80
2023-01-19T06:27:45.691Z,80
2023-01-19T06:28:46.827Z,80
2023-01-19T06:29:47.995Z,80
2023-01-19T06:30:49.404Z,80
2023-01-19T06:31:50.924Z,79.9
2023-01-19T06:32:52.097Z,79.9
2023-01-19T06:33:53.027Z,79.9
2023-01-19T06:34:55.176Z,79.8
2023-01-19T06:35:56.026Z,79.8
2023-01-19T06:36:57.210Z,79.7
2023-01-19T06:37:58.632Z,79.7
2023-01-19T06:38:59.568Z,79.7
2023-01-19T06:40:00.714Z,79.6
2023-01-19T06:41:01.611Z,79.6
2023-01-19T06:42:02.751Z,79.5
2023-01-19T06:43:04.806Z,79.5
2023-01-19T06:44:06.138Z,79.4
2023-01-19T06:45:07.842Z,79.3
2023-01-19T06:46:08.837Z,79.3
2023-01-19T06:47:17.239Z,79.2
2023-01-19T06:48:18.428Z,79.2
2023-01-19T06:49:19.324Z,79.1
2023-01-19T06:50:20.467Z,79
2023-01-19T06:51:21.623Z,79
2023-01-19T06:52:22.459Z,78.9
2023-01-19T06:53:23.377Z,78.9
2023-01-19T06:54:24.563Z,78.9
2023-01-19T06:55:28.784Z,78.8
2023-01-19T06:56:29.922Z,78.8
2023-01-19T06:57:31.335Z,78.8
2023-01-19T06:58:32.191Z,78.7
2023-01-19T06:59:33.614Z,78.7
2023-01-19T07:00:35.132Z,78.7
2023-01-19T07:01:37.103Z,78.7
2023-01-19T07:02:38.729Z,78.7
2023-01-19T07:03:39.649Z,78.6
2023-01-19T07:04:40.542Z,78.6
2023-01-19T07:05:41.958Z,78.6
2023-01-19T07:06:43.136Z,78.6
2023-01-19T07:07:43.760Z,78.6
2023-01-19T07:08:44.898Z,78.6
2023-01-19T07:09:46.037Z,78.6
2023-01-19T07:11:33.242Z,78.6
2023-01-19T07:12:34.624Z,78.8
2023-01-19T07:13:36.496Z,78.8
2023-01-19T07:14:37.400Z,78.8
2023-01-19T07:15:38.660Z,78.7
2023-01-19T07:16:40.064Z,78.7
2023-01-19T07:17:41.211Z,78.7
2023-01-19T07:18:42.331Z,78.6
2023-01-19T07:19:43.878Z,78.6
2023-01-19T07:20:45.052Z,78.6
2023-01-19T07:21:46.468Z,78.5
2023-01-19T07:22:47.617Z,78.5
2023-01-19T07:23:49.032Z,78.5
2023-01-19T07:24:50.163Z,78.5
2023-01-19T07:25:51.347Z,78.4
2023-01-19T07:26:52.766Z,78.4
2023-01-19T07:27:53.616Z,78.4
2023-01-19T07:28:54.754Z,78.4
2023-01-19T07:29:55.648Z,78.3
2023-01-19T07:30:57.858Z,78.3
2023-01-19T07:31:59.570Z,78.3
2023-01-19T07:33:01.981Z,78.3
2023-01-19T07:34:03.286Z,78.3
2023-01-19T07:35:04.445Z,78.3
2023-01-19T07:36:05.582Z,78.3
2023-01-19T07:37:07.000Z,78.3
2023-01-19T07:38:07.623Z,78.3
2023-01-19T07:39:08.758Z,78.3
2023-01-19T07:40:09.940Z,78.3
2023-01-19T07:41:10.973Z,78.2
2023-01-19T07:42:11.875Z,78.2
2023-01-19T07:43:13.285Z,78.2
2023-01-19T07:44:14.430Z,78.2
2023-01-19T07:45:15.611Z,78.2
2023-01-19T07:46:16.623Z,78.2
2023-01-19T07:47:17.822Z,78.2
2023-01-19T07:48:19.230Z,78.2
2023-01-19T07:49:20.368Z,78.2
2023-01-19T07:50:21.370Z,78.2
2023-01-19T07:51:22.835Z,78.2
2023-01-19T07:52:24.251Z,78.3
2023-01-19T07:53:25.384Z,78.3
2023-01-19T07:54:26.032Z,78.3
2023-01-19T07:55:27.145Z,78.3
2023-01-19T07:56:28.346Z,78.3
2023-01-19T07:57:29.840Z,78.3
2023-01-19T07:58:30.973Z,78.3
2023-01-19T07:59:32.109Z,78.3
2023-01-19T08:00:33.248Z,78.3
2023-01-19T08:01:35.324Z,78.3
2023-01-19T08:02:36.644Z,78.3
2023-01-19T08:03:38.085Z,78.3
2023-01-19T08:04:39.657Z,78.3
2023-01-19T08:05:40.926Z,78.3
2023-01-19T08:06:42.340Z,78.3
2023-01-19T08:07:43.477Z,78.3
2023-01-19T08:08:44.891Z,78.2
2023-01-19T08:09:46.037Z,78.2
2023-01-19T08:10:47.439Z,78.2
2023-01-19T08:11:48.574Z,78.2
2023-01-19T08:12:49.994Z,78.1
2023-01-19T08:13:51.136Z,78.1
2023-01-19T08:14:52.274Z,78.1
2023-01-19T08:15:54.163Z,78
2023-01-19T08:16:55.602Z,78
2023-01-19T08:17:56.993Z,77.9
2023-01-19T08:18:58.404Z,77.9
2023-01-19T08:19:59.309Z,77.8
2023-01-19T08:21:00.719Z,77.7
2023-01-19T08:22:01.628Z,77.6
2023-01-19T08:23:04.381Z,77.5
2023-01-19T08:24:06.287Z,77.5
2023-01-19T08:25:07.435Z,77.4
2023-01-19T08:26:08.611Z,77.3
2023-01-19T08:27:09.514Z,77.2
2023-01-19T08:28:10.661Z,77.1
2023-01-19T08:29:11.792Z,77
2023-01-19T08:30:12.411Z,76.9
2023-01-19T08:31:25.152Z,76.8
2023-01-19T08:32:26.847Z,76.8
2023-01-19T08:33:27.693Z,76.6
2023-01-19T08:34:29.105Z,76.5
2023-01-19T08:35:30.240Z,76.4
2023-01-19T08:36:31.657Z,76.3
2023-01-19T08:37:34.870Z,76.2
2023-01-19T08:38:35.781Z,76.1
2023-01-19T08:39:36.966Z,76
2023-01-19T08:40:38.156Z,75.8
2023-01-19T08:41:38.780Z,75.6
2023-01-19T08:42:39.911Z,75.5
2023-01-19T08:43:41.325Z,75.3
2023-01-19T08:44:59.120Z,75.2
2023-01-19T08:46:00.812Z,75.2
2023-01-19T08:47:02.519Z,75
2023-01-19T08:48:03.734Z,74.9
2023-01-19T08:49:05.129Z,74.8
2023-01-19T08:50:06.027Z,74.7
2023-01-19T08:51:07.443Z,74.6
2023-01-19T08:52:08.860Z,74.7
2023-01-19T08:53:09.765Z,74.4
2023-01-19T08:54:10.668Z,74.5
2023-01-19T08:55:12.101Z,74.6
2023-01-19T08:56:13.498Z,74.6
2023-01-19T08:57:14.912Z,74.8
2023-01-19T08:58:16.064Z,74.6
2023-01-19T08:59:17.502Z,74.8
2023-01-19T09:00:18.452Z,74.7
2023-01-19T09:01:20.247Z,74.6
2023-01-19T09:02:22.164Z,75
2023-01-19T09:03:24.344Z,74.6
2023-01-19T09:04:25.391Z,74.5
2023-01-19T09:05:26.813Z,74.6
2023-01-19T09:06:27.944Z,74.5
2023-01-19T09:07:32.572Z,74.3
2023-01-19T09:08:36.235Z,74.4
2023-01-19T09:09:37.371Z,74
2023-01-19T09:10:38.868Z,73.9
2023-01-19T09:11:40.280Z,74.1
2023-01-19T09:12:41.420Z,74.1
2023-01-19T09:13:43.097Z,74.2
2023-01-19T09:14:44.617Z,74.3
2023-01-19T09:15:46.298Z,74.1
2023-01-19T09:16:47.413Z,74.2
2023-01-19T09:17:48.318Z,74.1
2023-01-19T09:18:49.669Z,74
2023-01-19T09:19:50.769Z,73.9
2023-01-19T09:20:51.936Z,73.9
2023-01-19T09:21:53.076Z,73.8
2023-01-19T09:22:54.007Z,73.8
2023-01-19T09:23:55.119Z,73.7
2023-01-19T09:24:56.570Z,73.7
2023-01-19T09:25:58.112Z,73.4
2023-01-19T09:26:59.529Z,73.7
2023-01-19T09:28:01.794Z,73.5
2023-01-19T09:29:02.763Z,73.5
2023-01-19T09:30:03.660Z,73.4
2023-01-19T09:31:05.267Z,72.8
2023-01-19T09:32:06.008Z,73.1
2023-01-19T09:33:06.858Z,72.9
2023-01-19T09:34:08.413Z,72.9
2023-01-19T09:35:09.484Z,72.7
2023-01-19T09:36:10.100Z,72.5
2023-01-19T09:37:10.994Z,72.3
2023-01-19T09:38:11.896Z,72.2
2023-01-19T09:39:12.755Z,72.1
2023-01-19T09:40:14.165Z,71.9
2023-01-19T09:41:15.582Z,71.6
2023-01-19T09:42:16.719Z,71.4
2023-01-19T09:43:17.851Z,71.2
2023-01-19T09:44:18.472Z,71
2023-01-19T09:45:19.328Z,70.9
2023-01-19T09:46:20.361Z,70.9
2023-01-19T09:47:21.071Z,70.7
2023-01-19T09:48:22.199Z,70.5
2023-01-19T09:49:23.382Z,70.4
2023-01-19T09:50:24.208Z,70.4
2023-01-19T09:51:25.619Z,70.4
2023-01-19T09:52:26.760Z,70.2
2023-01-19T09:53:27.613Z,70
2023-01-19T09:54:28.749Z,69.9
2023-01-19T09:55:29.661Z,69.8
2023-01-19T09:56:31.056Z,69.6
2023-01-19T09:57:31.679Z,69.5
2023-01-19T09:58:32.534Z,69.4
2023-01-19T09:59:33.699Z,69.3
2023-01-19T10:00:34.513Z,69.2
2023-01-19T10:01:36.702Z,69.1
2023-01-19T10:02:38.444Z,68.9
2023-01-19T10:03:39.374Z,68.8
2023-01-19T10:04:40.336Z,68.7
2023-01-19T10:05:41.440Z,68.5
2023-01-19T10:06:42.599Z,68.6
2023-01-19T10:07:43.714Z,68.2
2023-01-19T10:08:44.857Z,68.3
2023-01-19T10:09:45.982Z,68.3
2023-01-19T10:10:47.121Z,68.1
2023-01-19T10:11:54.348Z,68.5
2023-01-19T10:12:55.211Z,69.1
2023-01-19T10:13:56.063Z,68.9
2023-01-19T10:14:57.484Z,69.1
2023-01-19T10:15:58.512Z,69.2
2023-01-19T10:16:59.818Z,69.2
2023-01-19T10:18:02.808Z,69.3
2023-01-19T10:19:04.154Z,69.5
2023-01-19T10:20:05.588Z,69.5
2023-01-19T10:21:07.683Z,69.6
2023-01-19T10:22:09.194Z,69.7
2023-01-19T10:23:09.813Z,69.6
2023-01-19T10:24:10.945Z,69.6
2023-01-19T10:25:12.086Z,69.4
2023-01-19T10:26:12.738Z,69.6
2023-01-19T10:27:13.952Z,68.8
2023-01-19T10:28:14.622Z,69.2
2023-01-19T10:29:15.974Z,68.9
2023-01-19T10:30:16.835Z,68.5
2023-01-19T10:31:18.167Z,68.1
2023-01-19T10:32:19.197Z,68.2
2023-01-19T10:33:20.372Z,67.6
2023-01-19T10:34:24.579Z,67.5
2023-01-19T10:35:26.160Z,67.6
2023-01-19T10:36:27.338Z,67.4
2023-01-19T10:37:28.309Z,67.1
2023-01-19T10:38:29.208Z,67.1
2023-01-19T10:39:30.591Z,67.1
2023-01-19T10:40:31.789Z,67.2
2023-01-19T10:41:32.722Z,67.3
2023-01-19T10:42:33.685Z,67.3
2023-01-19T10:43:34.608Z,67.3
2023-01-19T10:44:35.768Z,67.3
2023-01-19T10:45:37.608Z,67.4
2023-01-19T10:46:38.720Z,67.4
2023-01-19T10:47:39.639Z,67.5
2023-01-19T10:48:40.548Z,67.5
2023-01-19T10:49:41.444Z,67.5
2023-01-19T10:50:42.661Z,67.5
2023-01-19T10:51:43.811Z,67.5
2023-01-19T10:52:44.946Z,67.5
2023-01-19T10:53:46.120Z,67.3
2023-01-19T10:54:47.296Z,67.2
2023-01-19T10:55:48.428Z,67.1
2023-01-19T10:56:49.081Z,67.1
2023-01-19T10:57:50.258Z,67
2023-01-19T10:58:51.628Z,66.9
2023-01-19T10:59:53.051Z,66.7
2023-01-19T11:00:54.353Z,66.7
2023-01-19T11:01:56.392Z,66.7
2023-01-19T11:02:57.804Z,66.7
2023-01-19T11:03:58.945Z,66.8
2023-01-19T11:05:00.370Z,66.8
2023-01-19T11:06:01.563Z,66.8
2023-01-19T11:07:02.748Z,66.9
2023-01-19T11:08:04.163Z,67
2023-01-19T11:09:05.019Z,67.1
2023-01-19T11:10:05.878Z,67.2
2023-01-19T11:11:06.779Z,67.3
2023-01-19T11:12:07.684Z,67.4
2023-01-19T11:13:08.822Z,67.5
2023-01-19T11:14:09.690Z,67.7
2023-01-19T11:15:10.816Z,67.8
2023-01-19T11:16:13.186Z,67.8
2023-01-19T11:17:14.302Z,67.9
2023-01-19T11:18:15.197Z,68
2023-01-19T11:19:16.091Z,68.2
2023-01-19T11:20:17.324Z,68.4
2023-01-19T11:21:18.420Z,68.5
2023-01-19T11:22:19.550Z,68.7
2023-01-19T11:23:20.404Z,68.7
2023-01-19T11:24:21.533Z,68.8
2023-01-19T11:25:22.671Z,68.9
2023-01-19T11:26:23.290Z,69
2023-01-19T11:27:24.185Z,69.1
2023-01-19T11:28:26.163Z,69.1
2023-01-19T11:29:27.326Z,69.2
2023-01-19T11:30:27.954Z,69.2
2023-01-19T11:31:29.179Z,69.3
2023-01-19T11:32:30.279Z,69.3
2023-01-19T11:33:31.488Z,69.3
2023-01-19T11:34:32.138Z,69.3
2023-01-19T11:35:33.274Z,69.3
2023-01-19T11:36:34.730Z,69.3
2023-01-19T11:37:35.549Z,69.4
2023-01-19T11:38:36.446Z,69.4
2023-01-19T11:39:37.587Z,69.5
2023-01-19T11:40:38.722Z,69.5
2023-01-19T11:41:39.861Z,69.6
2023-01-19T11:42:40.494Z,69.7
2023-01-19T11:43:50.143Z,69.9
2023-01-19T11:44:51.002Z,70.2
2023-01-19T11:45:51.878Z,70.5
2023-01-19T11:46:52.904Z,70.7
2023-01-19T11:47:53.564Z,70.8
2023-01-19T11:48:54.469Z,71
2023-01-19T11:49:55.877Z,71.2
2023-01-19T11:50:56.733Z,71.4
2023-01-19T11:51:57.944Z,71.7
2023-01-19T11:52:59.080Z,71.8
2023-01-19T11:54:00.219Z,72
2023-01-19T11:55:01.641Z,72.1
2023-01-19T11:56:03.075Z,72.3
2023-01-19T11:57:03.972Z,72.5
2023-01-19T11:58:05.880Z,72.6
2023-01-19T11:59:06.720Z,72.7
2023-01-19T12:00:08.141Z,72.8
2023-01-19T12:01:09.305Z,72.9
2023-01-19T12:02:10.708Z,73
2023-01-19T12:03:11.677Z,73.1
2023-01-19T12:04:12.791Z,73.2
2023-01-19T12:05:13.710Z,73.2
2023-01-19T12:06:14.608Z,73.3
2023-01-19T12:07:15.853Z,73.3
2023-01-19T12:08:17.279Z,73.3
2023-01-19T12:09:18.456Z,73.3
2023-01-19T12:10:19.867Z,73.3
2023-01-19T12:11:21.041Z,73.2
2023-01-19T12:12:22.191Z,73.2
2023-01-19T12:13:23.320Z,73.2
2023-01-19T12:14:24.850Z,73.1
2023-01-19T12:15:25.729Z,73
2023-01-19T12:16:26.750Z,72.9
2023-01-19T12:17:28.005Z,72.7
2023-01-19T12:18:29.143Z,72.6
2023-01-19T12:19:30.053Z,72.5
2023-01-19T12:20:30.945Z,72.3
2023-01-19T12:21:31.845Z,72.1
2023-01-19T12:22:32.726Z,71.9
2023-01-19T12:23:33.619Z,71.8
2023-01-19T12:24:34.549Z,71.7
2023-01-19T12:25:35.487Z,71.5
2023-01-19T12:26:36.593Z,71.4
2023-01-19T12:27:37.735Z,71.2
2023-01-19T12:28:38.870Z,71.1
2023-01-19T12:29:40.464Z,71
2023-01-19T12:30:42.209Z,70.9
2023-01-19T12:31:44.155Z,70.8
2023-01-19T12:32:45.333Z,70.7
2023-01-19T12:33:46.194Z,70.6
2023-01-19T12:34:47.081Z,70.5
2023-01-19T12:35:47.971Z,70.5
2023-01-19T12:36:48.584Z,70.5
2023-01-19T12:37:49.467Z,70.5
2023-01-19T12:38:50.686Z,70.3
2023-01-19T12:39:51.848Z,70.1
2023-01-19T12:40:52.705Z,69.9
2023-01-19T12:41:53.603Z,69.8
2023-01-19T12:42:54.740Z,69.8
2023-01-19T12:43:55.640Z,69.6
2023-01-19T12:44:56.536Z,69.5
2023-01-19T12:45:57.605Z,69.3
2023-01-19T12:46:58.529Z,69.3
2023-01-19T12:47:59.669Z,69.4
2023-01-19T12:49:00.567Z,69.4
2023-01-19T12:50:01.468Z,69.5
2023-01-19T12:51:02.603Z,69.6
2023-01-19T12:52:03.507Z,69.6
2023-01-19T12:53:04.393Z,69.7
2023-01-19T12:54:06.263Z,69.7
2023-01-19T12:55:07.243Z,69.8
2023-01-19T12:56:08.166Z,69.8
2023-01-19T12:57:08.786Z,69.8
2023-01-19T12:58:09.922Z,69.9
2023-01-19T12:59:11.101Z,70
2023-01-19T13:00:12.517Z,70.1
2023-01-19T13:01:13.807Z,70.2
2023-01-19T13:02:15.417Z,70.3
2023-01-19T13:03:16.583Z,70.3
2023-01-19T13:04:17.486Z,70.2
2023-01-19T13:05:18.624Z,70.2
2023-01-19T13:06:19.529Z,70.2
2023-01-19T13:07:20.941Z,70.3
2023-01-19T13:08:22.415Z,70.3
2023-01-19T13:09:23.514Z,70.2
2023-01-19T13:10:24.127Z,70.2
2023-01-19T13:11:34.665Z,70.2
2023-01-19T13:12:35.841Z,70.3
2023-01-19T13:13:36.718Z,70.3
2023-01-19T13:14:37.840Z,70.3
2023-01-19T13:15:38.811Z,70.3
2023-01-19T13:16:39.742Z,70.3
2023-01-19T13:17:40.648Z,70.4
2023-01-19T13:18:41.509Z,70.4
2023-01-19T13:19:42.382Z,70.5
2023-01-19T13:20:43.560Z,70.5
2023-01-19T13:21:45.487Z,70.5
2023-01-19T13:22:46.381Z,70.5
2023-01-19T13:23:47.264Z,70.5
2023-01-19T13:24:48.100Z,70.5
2023-01-19T13:25:51.741Z,70.5
2023-01-19T13:26:52.865Z,70.5
2023-01-19T13:27:53.765Z,70.4
2023-01-19T13:28:54.386Z,70.4
2023-01-19T13:29:55.567Z,70.3
2023-01-19T13:30:57.429Z,70.2
2023-01-19T13:31:58.373Z,70.1
2023-01-19T13:32:59.267Z,70
2023-01-19T13:34:00.281Z,70
2023-01-19T13:35:02.857Z,70
2023-01-19T13:36:03.830Z,70
2023-01-19T13:37:04.786Z,70.1
2023-01-19T13:38:05.898Z,70.1
2023-01-19T13:39:07.075Z,70.1
2023-01-19T13:40:07.976Z,70.1
2023-01-19T13:41:09.111Z,70.1